sensor_id;sensor_type;location;lat;lon;timestamp;P1;P2;P0
45700;PMS5003;36277;32.852;-116.998;2022-12-29T00:01:39;2.00;2.00;2.00
45700;PMS5003;36277;32.852;-116.998;2022-12-29T00:04:06;2.80;2.80;2.60
45700;PMS5003;36277;32.852;-116.998;2022-12-29T00:06:32;2.00;2.00;2.00
45700;PMS5003;36277;32.852;-116.998;2022-12-29T00:08:59;1.20;1.20;1.20
45700;PMS5003;36277;32.852;-116.998;2022-12-29T00:11:26;2.00;2.00;2.00
45700;PMS5003;36277;32.852;-116.998;2022-12-29T00:13:53;2.00;2.00;1.20
45700;PMS5003;36277;32.852;-116.998;2022-12-29T00:16:39;2.80;2.80;2.80
45700;PMS5003;36277;32.852;-116.998;2022-12-29T00:19:08;0.80;0.80;0.80
45700;PMS5003;36277;32.852;-116.998;2022-12-29T00:21:55;1.80;1.80;1.80
45700;PMS5003;36277;32.852;-116.998;2022-12-29T00:24:40;2.00;2.00;2.00
45700;PMS5003;36277;32.852;-116.998;2022-12-29T00:27:25;1.40;1.40;1.40
45700;PMS5003;36277;32.852;-116.998;2022-12-29T00:30:11;1.20;1.20;1.00
45700;PMS5003;36277;32.852;-116.998;2022-12-29T00:32:57;1.00;1.00;1.00
45700;PMS5003;36277;32.852;-116.998;2022-12-29T00:35:51;1.20;1.20;0.40
45700;PMS5003;36277;32.852;-116.998;2022-12-29T00:38:21;2.60;2.60;2.40
45700;PMS5003;36277;32.852;-116.998;2022-12-29T00:41:06;1.60;1.60;1.40
45700;PMS5003;36277;32.852;-116.998;2022-12-29T00:43:50;3.00;3.00;3.00
45700;PMS5003;36277;32.852;-116.998;2022-12-29T00:46:35;3.00;3.00;3.00
45700;PMS5003;36277;32.852;-116.998;2022-12-29T00:49:03;3.00;3.00;2.80
45700;PMS5003;36277;32.852;-116.998;2022-12-29T00:51:49;3.20;3.20;3.00
45700;PMS5003;36277;32.852;-116.998;2022-12-29T00:54:16;3.00;3.00;3.00
45700;PMS5003;36277;32.852;-116.998;2022-12-29T00:56:43;2.20;2.20;2.20
45700;PMS5003;36277;32.852;-116.998;2022-12-29T00:59:11;1.40;1.40;1.40
45700;PMS5003;36277;32.852;-116.998;2022-12-29T01:01:37;3.20;3.20;2.80
45700;PMS5003;36277;32.852;-116.998;2022-12-29T01:04:04;2.20;2.20;2.00
45700;PMS5003;36277;32.852;-116.998;2022-12-29T01:06:31;2.40;2.40;2.00
45700;PMS5003;36277;32.852;-116.998;2022-12-29T01:08:59;2.00;2.00;2.00
45700;PMS5003;36277;32.852;-116.998;2022-12-29T01:11:43;1.00;1.00;1.00
45700;PMS5003;36277;32.852;-116.998;2022-12-29T01:14:10;1.60;1.60;1.00
45700;PMS5003;36277;32.852;-116.998;2022-12-29T01:16:36;1.00;1.00;1.00
45700;PMS5003;36277;32.852;-116.998;2022-12-29T01:19:03;1.00;1.00;1.00
45700;PMS5003;36277;32.852;-116.998;2022-12-29T01:21:31;1.20;1.20;1.20
45700;PMS5003;36277;32.852;-116.998;2022-12-29T01:24:00;1.60;1.60;1.60
45700;PMS5003;36277;32.852;-116.998;2022-12-29T01:26:27;2.00;2.00;2.00
45700;PMS5003;36277;32.852;-116.998;2022-12-29T01:28:53;1.20;1.20;1.20
45700;PMS5003;36277;32.852;-116.998;2022-12-29T01:31:19;1.00;1.00;1.00
45700;PMS5003;36277;32.852;-116.998;2022-12-29T01:33:45;0.00;0.00;0.00
45700;PMS5003;36277;32.852;-116.998;2022-12-29T01:36:13;1.00;1.00;0.80
45700;PMS5003;36277;32.852;-116.998;2022-12-29T01:38:41;2.00;2.00;2.00
45700;PMS5003;36277;32.852;-116.998;2022-12-29T01:41:10;1.00;1.00;1.00
45700;PMS5003;36277;32.852;-116.998;2022-12-29T01:43:49;1.00;1.00;1.00
45700;PMS5003;36277;32.852;-116.998;2022-12-29T01:46:28;1.00;1.00;1.00
45700;PMS5003;36277;32.852;-116.998;2022-12-29T01:51:41;0.80;0.80;0.60
45700;PMS5003;36277;32.852;-116.998;2022-12-29T01:54:17;0.80;0.80;0.80
45700;PMS5003;36277;32.852;-116.998;2022-12-29T01:56:54;0.80;0.80;0.80
45700;PMS5003;36277;32.852;-116.998;2022-12-29T01:59:29;0.20;0.20;0.20
45700;PMS5003;36277;32.852;-116.998;2022-12-29T02:02:00;1.00;1.00;1.00
45700;PMS5003;36277;32.852;-116.998;2022-12-29T02:04:27;1.00;1.00;1.00
45700;PMS5003;36277;32.852;-116.998;2022-12-29T02:06:58;1.00;1.00;1.00
45700;PMS5003;36277;32.852;-116.998;2022-12-29T02:09:33;2.00;2.00;2.00
45700;PMS5003;36277;32.852;-116.998;2022-12-29T02:11:59;2.00;2.00;1.60
45700;PMS5003;36277;32.852;-116.998;2022-12-29T02:14:27;1.00;1.00;1.00
45700;PMS5003;36277;32.852;-116.998;2022-12-29T02:22:24;1.00;1.00;1.00
45700;PMS5003;36277;32.852;-116.998;2022-12-29T02:30:28;1.40;1.40;1.20
45700;PMS5003;36277;32.852;-116.998;2022-12-29T02:33:19;1.00;1.00;1.00
45700;PMS5003;36277;32.852;-116.998;2022-12-29T02:46:54;1.00;1.00;1.00
45700;PMS5003;36277;32.852;-116.998;2022-12-29T02:49:41;1.20;1.20;1.00
45700;PMS5003;36277;32.852;-116.998;2022-12-29T02:53:09;0.40;0.40;0.00
45700;PMS5003;36277;32.852;-116.998;2022-12-29T02:55:30;1.00;1.00;1.00
45700;PMS5003;36277;32.852;-116.998;2022-12-29T02:58:09;1.00;1.00;1.00
45700;PMS5003;36277;32.852;-116.998;2022-12-29T03:00:40;0.20;0.20;0.20
45700;PMS5003;36277;32.852;-116.998;2022-12-29T03:08:58;1.00;1.00;0.80
45700;PMS5003;36277;32.852;-116.998;2022-12-29T03:11:32;0.00;0.00;0.00
45700;PMS5003;36277;32.852;-116.998;2022-12-29T03:14:33;1.00;1.00;1.00
45700;PMS5003;36277;32.852;-116.998;2022-12-29T03:17:40;2.40;2.40;2.00
45700;PMS5003;36277;32.852;-116.998;2022-12-29T03:20:15;2.00;2.00;2.00
45700;PMS5003;36277;32.852;-116.998;2022-12-29T03:22:47;3.00;3.00;2.60
45700;PMS5003;36277;32.852;-116.998;2022-12-29T03:25:39;2.80;2.80;2.80
45700;PMS5003;36277;32.852;-116.998;2022-12-29T03:28:14;3.00;3.00;3.00
45700;PMS5003;36277;32.852;-116.998;2022-12-29T03:30:48;3.00;3.00;2.00
45700;PMS5003;36277;32.852;-116.998;2022-12-29T03:33:20;5.80;5.80;5.00
45700;PMS5003;36277;32.852;-116.998;2022-12-29T03:35:49;3.40;3.40;3.00
45700;PMS5003;36277;32.852;-116.998;2022-12-29T03:38:22;6.60;6.60;6.00
45700;PMS5003;36277;32.852;-116.998;2022-12-29T03:41:00;8.00;8.00;7.00
45700;PMS5003;36277;32.852;-116.998;2022-12-29T03:43:45;7.00;7.00;6.40
45700;PMS5003;36277;32.852;-116.998;2022-12-29T03:46:12;5.00;5.00;3.80
45700;PMS5003;36277;32.852;-116.998;2022-12-29T03:48:38;8.00;8.00;7.00
45700;PMS5003;36277;32.852;-116.998;2022-12-29T03:51:04;7.00;7.00;6.20
45700;PMS5003;36277;32.852;-116.998;2022-12-29T03:53:31;7.00;7.00;6.00
45700;PMS5003;36277;32.852;-116.998;2022-12-29T03:55:57;6.40;6.40;5.60
45700;PMS5003;36277;32.852;-116.998;2022-12-29T03:58:23;7.00;7.00;6.00
45700;PMS5003;36277;32.852;-116.998;2022-12-29T04:00:50;8.60;8.60;7.20
45700;PMS5003;36277;32.852;-116.998;2022-12-29T04:03:16;7.80;7.80;6.80
45700;PMS5003;36277;32.852;-116.998;2022-12-29T04:05:42;8.20;8.20;7.40
45700;PMS5003;36277;32.852;-116.998;2022-12-29T04:08:08;7.00;7.00;6.00
45700;PMS5003;36277;32.852;-116.998;2022-12-29T04:10:35;9.40;9.00;7.00
45700;PMS5003;36277;32.852;-116.998;2022-12-29T04:13:01;9.00;9.00;8.00
45700;PMS5003;36277;32.852;-116.998;2022-12-29T04:15:27;9.20;9.20;8.00
45700;PMS5003;36277;32.852;-116.998;2022-12-29T04:17:53;9.20;9.20;7.80
45700;PMS5003;36277;32.852;-116.998;2022-12-29T04:20:20;6.40;6.40;5.40
45700;PMS5003;36277;32.852;-116.998;2022-12-29T04:23:04;7.60;7.60;7.00
45700;PMS5003;36277;32.852;-116.998;2022-12-29T04:25:32;5.20;5.20;4.80
45700;PMS5003;36277;32.852;-116.998;2022-12-29T04:27:58;8.40;8.40;7.40
45700;PMS5003;36277;32.852;-116.998;2022-12-29T04:30:25;8.60;8.60;7.80
45700;PMS5003;36277;32.852;-116.998;2022-12-29T04:32:51;7.60;7.60;6.60
45700;PMS5003;36277;32.852;-116.998;2022-12-29T04:35:17;8.00;8.00;6.20
45700;PMS5003;36277;32.852;-116.998;2022-12-29T04:37:44;7.80;7.80;6.80
45700;PMS5003;36277;32.852;-116.998;2022-12-29T04:40:10;8.00;8.00;7.00
45700;PMS5003;36277;32.852;-116.998;2022-12-29T04:42:37;7.00;7.00;6.20
45700;PMS5003;36277;32.852;-116.998;2022-12-29T04:45:03;7.00;7.00;6.00
45700;PMS5003;36277;32.852;-116.998;2022-12-29T04:47:30;7.00;7.00;6.00
45700;PMS5003;36277;32.852;-116.998;2022-12-29T04:49:56;7.80;7.80;7.00
45700;PMS5003;36277;32.852;-116.998;2022-12-29T04:52:22;6.40;6.40;5.60
45700;PMS5003;36277;32.852;-116.998;2022-12-29T04:54:49;7.00;7.00;6.00
45700;PMS5003;36277;32.852;-116.998;2022-12-29T04:57:15;6.20;6.20;5.20
45700;PMS5003;36277;32.852;-116.998;2022-12-29T04:59:41;6.00;6.00;5.20
45700;PMS5003;36277;32.852;-116.998;2022-12-29T05:02:08;6.00;6.00;5.80
45700;PMS5003;36277;32.852;-116.998;2022-12-29T05:04:34;6.40;6.40;6.00
45700;PMS5003;36277;32.852;-116.998;2022-12-29T05:07:00;7.00;7.00;6.00
45700;PMS5003;36277;32.852;-116.998;2022-12-29T05:09:27;6.00;6.00;5.00
45700;PMS5003;36277;32.852;-116.998;2022-12-29T05:11:55;5.00;5.00;4.00
45700;PMS5003;36277;32.852;-116.998;2022-12-29T05:14:22;6.00;6.00;5.00
45700;PMS5003;36277;32.852;-116.998;2022-12-29T05:16:48;5.60;5.60;5.00
45700;PMS5003;36277;32.852;-116.998;2022-12-29T05:19:14;5.00;5.00;4.40
45700;PMS5003;36277;32.852;-116.998;2022-12-29T05:21:42;4.20;4.20;3.80
45700;PMS5003;36277;32.852;-116.998;2022-12-29T05:24:08;5.20;5.20;5.00
45700;PMS5003;36277;32.852;-116.998;2022-12-29T05:26:35;6.40;6.40;6.00
45700;PMS5003;36277;32.852;-116.998;2022-12-29T05:29:01;5.00;5.00;4.80
45700;PMS5003;36277;32.852;-116.998;2022-12-29T05:31:29;5.40;5.40;5.00
45700;PMS5003;36277;32.852;-116.998;2022-12-29T05:33:55;7.00;7.00;6.00
45700;PMS5003;36277;32.852;-116.998;2022-12-29T05:36:21;5.60;5.60;5.00
45700;PMS5003;36277;32.852;-116.998;2022-12-29T05:38:48;5.60;5.60;5.00
45700;PMS5003;36277;32.852;-116.998;2022-12-29T05:41:14;5.00;5.00;5.00
45700;PMS5003;36277;32.852;-116.998;2022-12-29T05:43:41;4.20;4.20;4.20
45700;PMS5003;36277;32.852;-116.998;2022-12-29T05:46:07;4.00;4.00;3.80
45700;PMS5003;36277;32.852;-116.998;2022-12-29T05:48:33;5.60;5.60;5.60
45700;PMS5003;36277;32.852;-116.998;2022-12-29T05:50:59;5.00;5.00;4.20
45700;PMS5003;36277;32.852;-116.998;2022-12-29T05:53:26;6.00;6.00;5.00
45700;PMS5003;36277;32.852;-116.998;2022-12-29T05:55:53;4.20;4.20;3.80
45700;PMS5003;36277;32.852;-116.998;2022-12-29T05:58:23;5.80;5.80;5.00
45700;PMS5003;36277;32.852;-116.998;2022-12-29T06:00:50;5.00;5.00;4.60
45700;PMS5003;36277;32.852;-116.998;2022-12-29T06:03:17;3.00;3.00;2.80
45700;PMS5003;36277;32.852;-116.998;2022-12-29T06:05:44;4.00;4.00;4.00
45700;PMS5003;36277;32.852;-116.998;2022-12-29T06:08:11;6.00;6.00;5.00
45700;PMS5003;36277;32.852;-116.998;2022-12-29T06:10:38;6.00;6.00;5.00
45700;PMS5003;36277;32.852;-116.998;2022-12-29T06:13:05;5.00;5.00;4.00
45700;PMS5003;36277;32.852;-116.998;2022-12-29T06:15:31;4.20;4.20;4.00
45700;PMS5003;36277;32.852;-116.998;2022-12-29T06:17:58;4.60;4.60;4.00
45700;PMS5003;36277;32.852;-116.998;2022-12-29T06:20:25;4.80;4.60;4.00
45700;PMS5003;36277;32.852;-116.998;2022-12-29T06:22:51;5.00;5.00;4.00
45700;PMS5003;36277;32.852;-116.998;2022-12-29T06:25:17;4.00;4.00;4.00
45700;PMS5003;36277;32.852;-116.998;2022-12-29T06:27:44;5.40;5.40;5.20
45700;PMS5003;36277;32.852;-116.998;2022-12-29T06:30:10;4.00;4.00;3.60
45700;PMS5003;36277;32.852;-116.998;2022-12-29T06:32:38;4.00;4.00;4.00
45700;PMS5003;36277;32.852;-116.998;2022-12-29T06:35:04;4.80;4.80;4.00
45700;PMS5003;36277;32.852;-116.998;2022-12-29T06:37:31;4.00;4.00;4.00
45700;PMS5003;36277;32.852;-116.998;2022-12-29T06:39:58;5.80;5.80;5.00
45700;PMS5003;36277;32.852;-116.998;2022-12-29T06:42:24;4.80;4.80;4.00
45700;PMS5003;36277;32.852;-116.998;2022-12-29T06:44:50;4.00;4.00;4.00
45700;PMS5003;36277;32.852;-116.998;2022-12-29T06:47:17;3.80;3.80;3.80
45700;PMS5003;36277;32.852;-116.998;2022-12-29T06:49:44;4.60;4.60;4.00
45700;PMS5003;36277;32.852;-116.998;2022-12-29T06:52:10;3.60;3.60;3.20
45700;PMS5003;36277;32.852;-116.998;2022-12-29T06:54:37;3.00;3.00;3.00
45700;PMS5003;36277;32.852;-116.998;2022-12-29T06:57:03;3.20;3.20;3.00
45700;PMS5003;36277;32.852;-116.998;2022-12-29T06:59:29;3.00;3.00;3.00
45700;PMS5003;36277;32.852;-116.998;2022-12-29T07:01:55;3.60;3.60;3.00
45700;PMS5003;36277;32.852;-116.998;2022-12-29T07:04:22;3.00;3.00;3.00
45700;PMS5003;36277;32.852;-116.998;2022-12-29T07:06:48;3.00;3.00;3.00
45700;PMS5003;36277;32.852;-116.998;2022-12-29T07:09:14;3.80;3.80;3.00
45700;PMS5003;36277;32.852;-116.998;2022-12-29T07:11:40;4.00;4.00;3.80
45700;PMS5003;36277;32.852;-116.998;2022-12-29T07:14:07;3.00;3.00;2.80
45700;PMS5003;36277;32.852;-116.998;2022-12-29T07:16:33;2.20;2.20;2.20
45700;PMS5003;36277;32.852;-116.998;2022-12-29T07:18:59;1.20;1.20;1.00
45700;PMS5003;36277;32.852;-116.998;2022-12-29T07:21:25;4.00;4.00;3.80
45700;PMS5003;36277;32.852;-116.998;2022-12-29T07:23:53;3.20;3.20;3.00
45700;PMS5003;36277;32.852;-116.998;2022-12-29T07:26:20;3.00;3.00;2.60
45700;PMS5003;36277;32.852;-116.998;2022-12-29T07:28:46;3.20;3.20;3.00
45700;PMS5003;36277;32.852;-116.998;2022-12-29T07:31:17;3.00;3.00;3.00
45700;PMS5003;36277;32.852;-116.998;2022-12-29T07:33:44;3.00;3.00;2.80
45700;PMS5003;36277;32.852;-116.998;2022-12-29T07:36:12;3.00;3.00;3.00
45700;PMS5003;36277;32.852;-116.998;2022-12-29T07:38:39;3.00;3.00;3.00
45700;PMS5003;36277;32.852;-116.998;2022-12-29T07:41:05;1.00;1.00;1.00
45700;PMS5003;36277;32.852;-116.998;2022-12-29T07:43:32;3.20;3.20;3.20
45700;PMS5003;36277;32.852;-116.998;2022-12-29T07:45:58;4.20;4.20;3.60
45700;PMS5003;36277;32.852;-116.998;2022-12-29T07:48:24;3.00;3.00;3.00
45700;PMS5003;36277;32.852;-116.998;2022-12-29T07:50:51;3.60;3.60;3.40
45700;PMS5003;36277;32.852;-116.998;2022-12-29T07:53:18;3.00;3.00;2.80
45700;PMS5003;36277;32.852;-116.998;2022-12-29T07:55:45;3.60;3.60;3.00
45700;PMS5003;36277;32.852;-116.998;2022-12-29T07:58:11;4.00;4.00;4.00
45700;PMS5003;36277;32.852;-116.998;2022-12-29T08:00:38;3.00;3.00;2.60
45700;PMS5003;36277;32.852;-116.998;2022-12-29T08:03:04;3.80;3.80;3.00
45700;PMS5003;36277;32.852;-116.998;2022-12-29T08:05:31;3.00;3.00;3.00
45700;PMS5003;36277;32.852;-116.998;2022-12-29T08:07:59;3.00;3.00;2.80
45700;PMS5003;36277;32.852;-116.998;2022-12-29T08:10:25;1.00;1.00;1.00
45700;PMS5003;36277;32.852;-116.998;2022-12-29T08:12:52;2.00;2.00;1.80
45700;PMS5003;36277;32.852;-116.998;2022-12-29T08:15:18;4.00;4.00;3.60
45700;PMS5003;36277;32.852;-116.998;2022-12-29T08:17:44;4.00;4.00;3.40
45700;PMS5003;36277;32.852;-116.998;2022-12-29T08:20:10;1.00;1.00;1.00
45700;PMS5003;36277;32.852;-116.998;2022-12-29T08:22:37;3.00;3.00;3.00
45700;PMS5003;36277;32.852;-116.998;2022-12-29T08:25:03;3.20;3.20;3.20
45700;PMS5003;36277;32.852;-116.998;2022-12-29T08:27:30;3.60;3.60;3.60
45700;PMS5003;36277;32.852;-116.998;2022-12-29T08:29:56;3.80;3.80;3.60
45700;PMS5003;36277;32.852;-116.998;2022-12-29T08:32:22;3.00;3.00;2.60
45700;PMS5003;36277;32.852;-116.998;2022-12-29T08:34:49;4.00;4.00;3.00
45700;PMS5003;36277;32.852;-116.998;2022-12-29T08:37:15;3.00;3.00;3.00
45700;PMS5003;36277;32.852;-116.998;2022-12-29T08:39:42;3.00;3.00;3.00
45700;PMS5003;36277;32.852;-116.998;2022-12-29T08:42:08;2.00;2.00;2.00
45700;PMS5003;36277;32.852;-116.998;2022-12-29T08:44:34;3.00;3.00;2.80
45700;PMS5003;36277;32.852;-116.998;2022-12-29T08:47:00;3.00;3.00;3.00
45700;PMS5003;36277;32.852;-116.998;2022-12-29T08:49:27;4.40;4.40;4.00
45700;PMS5003;36277;32.852;-116.998;2022-12-29T08:51:53;2.60;2.60;2.60
45700;PMS5003;36277;32.852;-116.998;2022-12-29T08:54:19;3.20;3.20;3.00
45700;PMS5003;36277;32.852;-116.998;2022-12-29T08:56:45;2.60;2.60;2.40
45700;PMS5003;36277;32.852;-116.998;2022-12-29T08:59:12;3.80;3.80;3.00
45700;PMS5003;36277;32.852;-116.998;2022-12-29T09:01:38;3.00;3.00;2.60
45700;PMS5003;36277;32.852;-116.998;2022-12-29T09:04:05;3.20;3.20;3.00
45700;PMS5003;36277;32.852;-116.998;2022-12-29T09:06:32;3.60;3.60;3.00
45700;PMS5003;36277;32.852;-116.998;2022-12-29T09:08:59;2.80;2.80;2.00
45700;PMS5003;36277;32.852;-116.998;2022-12-29T09:11:25;3.00;3.00;2.60
45700;PMS5003;36277;32.852;-116.998;2022-12-29T09:13:52;2.60;2.60;2.00
45700;PMS5003;36277;32.852;-116.998;2022-12-29T09:16:19;2.00;2.00;2.00
45700;PMS5003;36277;32.852;-116.998;2022-12-29T09:18:48;2.20;2.20;2.00
45700;PMS5003;36277;32.852;-116.998;2022-12-29T09:21:14;2.20;2.20;2.20
45700;PMS5003;36277;32.852;-116.998;2022-12-29T09:23:40;3.00;3.00;3.00
45700;PMS5003;36277;32.852;-116.998;2022-12-29T09:26:07;3.20;3.20;2.80
45700;PMS5003;36277;32.852;-116.998;2022-12-29T09:28:34;3.60;3.60;3.00
45700;PMS5003;36277;32.852;-116.998;2022-12-29T09:31:02;2.00;2.00;2.00
45700;PMS5003;36277;32.852;-116.998;2022-12-29T09:33:28;3.00;3.00;3.00
45700;PMS5003;36277;32.852;-116.998;2022-12-29T09:35:55;2.00;2.00;2.00
45700;PMS5003;36277;32.852;-116.998;2022-12-29T09:38:23;2.00;2.00;2.00
45700;PMS5003;36277;32.852;-116.998;2022-12-29T09:40:52;3.00;3.00;2.20
45700;PMS5003;36277;32.852;-116.998;2022-12-29T09:46:27;3.80;3.80;3.00
45700;PMS5003;36277;32.852;-116.998;2022-12-29T09:49:06;3.00;3.00;2.40
45700;PMS5003;36277;32.852;-116.998;2022-12-29T09:51:43;3.00;3.00;2.80
45700;PMS5003;36277;32.852;-116.998;2022-12-29T09:56:58;2.20;2.20;2.00
45700;PMS5003;36277;32.852;-116.998;2022-12-29T09:59:27;3.00;3.00;2.00
45700;PMS5003;36277;32.852;-116.998;2022-12-29T10:02:31;2.80;2.80;2.00
45700;PMS5003;36277;32.852;-116.998;2022-12-29T10:05:03;3.00;3.00;3.00
45700;PMS5003;36277;32.852;-116.998;2022-12-29T10:07:41;2.20;2.20;2.00
45700;PMS5003;36277;32.852;-116.998;2022-12-29T10:16:05;1.00;1.00;1.00
45700;PMS5003;36277;32.852;-116.998;2022-12-29T10:21:20;3.00;3.00;3.00
45700;PMS5003;36277;32.852;-116.998;2022-12-29T10:23:51;2.20;2.20;2.00
45700;PMS5003;36277;32.852;-116.998;2022-12-29T10:26:20;2.80;2.80;2.00
45700;PMS5003;36277;32.852;-116.998;2022-12-29T10:28:56;2.80;2.80;2.80
45700;PMS5003;36277;32.852;-116.998;2022-12-29T10:31:50;3.00;3.00;2.00
45700;PMS5003;36277;32.852;-116.998;2022-12-29T10:34:29;3.00;3.00;2.60
45700;PMS5003;36277;32.852;-116.998;2022-12-29T10:37:14;2.80;2.80;2.60
45700;PMS5003;36277;32.852;-116.998;2022-12-29T10:39:43;3.00;3.00;2.00
45700;PMS5003;36277;32.852;-116.998;2022-12-29T10:42:14;2.00;2.00;2.00
45700;PMS5003;36277;32.852;-116.998;2022-12-29T10:44:41;3.00;3.00;2.60
45700;PMS5003;36277;32.852;-116.998;2022-12-29T10:47:12;2.00;2.00;2.00
45700;PMS5003;36277;32.852;-116.998;2022-12-29T10:49:45;2.00;2.00;2.00
45700;PMS5003;36277;32.852;-116.998;2022-12-29T10:52:15;3.00;3.00;3.00
45700;PMS5003;36277;32.852;-116.998;2022-12-29T10:55:30;1.00;1.00;1.00
45700;PMS5003;36277;32.852;-116.998;2022-12-29T10:57:45;2.00;2.00;2.00
45700;PMS5003;36277;32.852;-116.998;2022-12-29T11:08:43;2.00;2.00;2.00
45700;PMS5003;36277;32.852;-116.998;2022-12-29T11:11:33;2.60;2.60;2.60
45700;PMS5003;36277;32.852;-116.998;2022-12-29T11:14:14;2.20;2.20;2.00
45700;PMS5003;36277;32.852;-116.998;2022-12-29T11:16:44;1.80;1.80;1.40
45700;PMS5003;36277;32.852;-116.998;2022-12-29T11:19:27;2.40;2.40;2.20
45700;PMS5003;36277;32.852;-116.998;2022-12-29T11:22:03;2.00;2.00;1.20
45700;PMS5003;36277;32.852;-116.998;2022-12-29T11:24:45;2.00;2.00;2.00
45700;PMS5003;36277;32.852;-116.998;2022-12-29T11:27:22;2.00;2.00;2.00
45700;PMS5003;36277;32.852;-116.998;2022-12-29T11:29:50;1.80;1.80;1.80
45700;PMS5003;36277;32.852;-116.998;2022-12-29T11:32:28;2.00;2.00;1.60
45700;PMS5003;36277;32.852;-116.998;2022-12-29T11:34:58;3.00;3.00;2.00
45700;PMS5003;36277;32.852;-116.998;2022-12-29T11:37:30;2.80;2.80;2.60
45700;PMS5003;36277;32.852;-116.998;2022-12-29T11:40:21;2.40;2.40;2.40
45700;PMS5003;36277;32.852;-116.998;2022-12-29T11:42:52;1.40;1.40;1.20
45700;PMS5003;36277;32.852;-116.998;2022-12-29T11:45:30;2.00;2.00;2.00
45700;PMS5003;36277;32.852;-116.998;2022-12-29T11:48:38;2.00;2.00;2.00
45700;PMS5003;36277;32.852;-116.998;2022-12-29T11:51:19;2.00;2.00;2.00
45700;PMS5003;36277;32.852;-116.998;2022-12-29T11:53:56;2.60;2.60;2.00
45700;PMS5003;36277;32.852;-116.998;2022-12-29T11:56:45;1.00;1.00;1.00
45700;PMS5003;36277;32.852;-116.998;2022-12-29T11:59:25;2.00;2.00;2.00
45700;PMS5003;36277;32.852;-116.998;2022-12-29T12:02:24;2.00;2.00;2.00
45700;PMS5003;36277;32.852;-116.998;2022-12-29T12:04:52;1.60;1.60;1.00
45700;PMS5003;36277;32.852;-116.998;2022-12-29T12:07:40;1.00;1.00;1.00
45700;PMS5003;36277;32.852;-116.998;2022-12-29T12:10:17;1.80;1.80;1.20
45700;PMS5003;36277;32.852;-116.998;2022-12-29T12:15:39;1.20;1.20;1.00
45700;PMS5003;36277;32.852;-116.998;2022-12-29T12:18:11;1.00;1.00;1.00
45700;PMS5003;36277;32.852;-116.998;2022-12-29T12:20:45;0.80;0.80;0.80
45700;PMS5003;36277;32.852;-116.998;2022-12-29T12:23:38;1.00;1.00;1.00
45700;PMS5003;36277;32.852;-116.998;2022-12-29T12:26:15;1.60;1.60;1.20
45700;PMS5003;36277;32.852;-116.998;2022-12-29T12:29:10;1.80;1.80;1.00
45700;PMS5003;36277;32.852;-116.998;2022-12-29T12:34:50;2.60;2.60;2.00
45700;PMS5003;36277;32.852;-116.998;2022-12-29T12:42:33;2.00;2.00;2.00
45700;PMS5003;36277;32.852;-116.998;2022-12-29T12:45:31;1.80;1.80;1.80
45700;PMS5003;36277;32.852;-116.998;2022-12-29T12:50:55;1.00;1.00;1.00
45700;PMS5003;36277;32.852;-116.998;2022-12-29T12:53:51;1.00;1.00;1.00
45700;PMS5003;36277;32.852;-116.998;2022-12-29T12:56:52;1.20;1.20;1.00
45700;PMS5003;36277;32.852;-116.998;2022-12-29T13:04:57;1.00;1.00;1.00
45700;PMS5003;36277;32.852;-116.998;2022-12-29T13:13:29;2.00;2.00;2.00
45700;PMS5003;36277;32.852;-116.998;2022-12-29T13:19:03;2.00;2.00;1.00
45700;PMS5003;36277;32.852;-116.998;2022-12-29T13:30:10;1.00;1.00;1.00
45700;PMS5003;36277;32.852;-116.998;2022-12-29T13:40:50;1.00;1.00;1.00
45700;PMS5003;36277;32.852;-116.998;2022-12-29T13:43:24;2.00;2.00;1.20
45700;PMS5003;36277;32.852;-116.998;2022-12-29T13:46:03;1.40;1.40;1.00
45700;PMS5003;36277;32.852;-116.998;2022-12-29T13:48:56;1.00;1.00;1.00
45700;PMS5003;36277;32.852;-116.998;2022-12-29T13:51:25;1.00;1.00;1.00
45700;PMS5003;36277;32.852;-116.998;2022-12-29T13:54:11;2.00;2.00;2.00
45700;PMS5003;36277;32.852;-116.998;2022-12-29T13:59:44;3.00;3.00;2.00
45700;PMS5003;36277;32.852;-116.998;2022-12-29T14:02:30;2.00;2.00;2.00
45700;PMS5003;36277;32.852;-116.998;2022-12-29T14:05:02;2.00;2.00;2.00
45700;PMS5003;36277;32.852;-116.998;2022-12-29T14:07:56;2.00;2.00;1.20
45700;PMS5003;36277;32.852;-116.998;2022-12-29T14:10:38;1.60;1.60;1.00
45700;PMS5003;36277;32.852;-116.998;2022-12-29T14:13:20;1.80;1.80;1.80
45700;PMS5003;36277;32.852;-116.998;2022-12-29T14:15:52;2.00;2.00;1.80
45700;PMS5003;36277;32.852;-116.998;2022-12-29T14:18:24;2.60;2.60;2.00
45700;PMS5003;36277;32.852;-116.998;2022-12-29T14:20:58;1.60;1.60;1.00
45700;PMS5003;36277;32.852;-116.998;2022-12-29T14:23:44;2.00;2.00;2.00
45700;PMS5003;36277;32.852;-116.998;2022-12-29T14:26:32;1.80;1.80;1.60
45700;PMS5003;36277;32.852;-116.998;2022-12-29T14:29:43;1.80;1.80;1.20
45700;PMS5003;36277;32.852;-116.998;2022-12-29T14:31:53;2.00;2.00;1.00
45700;PMS5003;36277;32.852;-116.998;2022-12-29T14:39:54;2.00;2.00;1.40
45700;PMS5003;36277;32.852;-116.998;2022-12-29T14:42:14;2.20;2.20;2.00
45700;PMS5003;36277;32.852;-116.998;2022-12-29T14:44:51;0.60;0.60;0.00
45700;PMS5003;36277;32.852;-116.998;2022-12-29T14:47:42;1.00;1.00;1.00
45700;PMS5003;36277;32.852;-116.998;2022-12-29T14:50:15;1.20;1.20;1.00
45700;PMS5003;36277;32.852;-116.998;2022-12-29T14:55:39;1.40;1.40;1.00
45700;PMS5003;36277;32.852;-116.998;2022-12-29T15:00:55;2.00;2.00;2.00
45700;PMS5003;36277;32.852;-116.998;2022-12-29T15:05:54;1.50;1.50;1.50
45700;PMS5003;36277;32.852;-116.998;2022-12-29T15:08:27;2.40;2.40;2.00
45700;PMS5003;36277;32.852;-116.998;2022-12-29T15:13:39;2.00;2.00;2.00
45700;PMS5003;36277;32.852;-116.998;2022-12-29T15:16:21;2.00;2.00;2.00
45700;PMS5003;36277;32.852;-116.998;2022-12-29T15:18:48;2.00;2.00;2.00
45700;PMS5003;36277;32.852;-116.998;2022-12-29T15:21:14;2.00;2.00;2.00
45700;PMS5003;36277;32.852;-116.998;2022-12-29T15:23:44;1.75;1.75;1.25
45700;PMS5003;36277;32.852;-116.998;2022-12-29T15:26:11;1.00;1.00;1.00
45700;PMS5003;36277;32.852;-116.998;2022-12-29T15:28:46;1.50;1.50;1.50
45700;PMS5003;36277;32.852;-116.998;2022-12-29T15:31:20;1.50;1.50;1.25
45700;PMS5003;36277;32.852;-116.998;2022-12-29T15:33:50;1.00;1.00;1.00
45700;PMS5003;36277;32.852;-116.998;2022-12-29T15:36:22;2.00;2.00;2.00
45700;PMS5003;36277;32.852;-116.998;2022-12-29T15:38:51;3.50;3.50;3.50
45700;PMS5003;36277;32.852;-116.998;2022-12-29T15:44:28;0.00;0.00;0.00
45700;PMS5003;36277;32.852;-116.998;2022-12-29T15:47:08;2.00;2.00;1.60
45700;PMS5003;36277;32.852;-116.998;2022-12-29T15:49:42;1.00;1.00;1.00
45700;PMS5003;36277;32.852;-116.998;2022-12-29T15:52:10;1.50;1.50;1.50
45700;PMS5003;36277;32.852;-116.998;2022-12-29T15:54:43;1.00;1.00;1.00
45700;PMS5003;36277;32.852;-116.998;2022-12-29T15:57:16;2.00;2.00;2.00
45700;PMS5003;36277;32.852;-116.998;2022-12-29T15:59:50;1.00;1.00;1.00
45700;PMS5003;36277;32.852;-116.998;2022-12-29T16:02:16;1.00;1.00;1.00
45700;PMS5003;36277;32.852;-116.998;2022-12-29T16:04:44;1.80;1.80;1.00
45700;PMS5003;36277;32.852;-116.998;2022-12-29T16:07:30;2.00;2.00;2.00
45700;PMS5003;36277;32.852;-116.998;2022-12-29T16:09:59;1.25;1.25;1.25
45700;PMS5003;36277;32.852;-116.998;2022-12-29T16:12:34;0.80;0.80;0.20
45700;PMS5003;36277;32.852;-116.998;2022-12-29T16:15:11;2.00;2.00;2.00